Time;durP1;ratioP1;P1;durP2;ratioP2;P2;SDS_P1;SDS_P2;PMS_P1;PMS_P2;Temp;Humidity;BMP_temperature;BMP_pressure;BME280_temperature;BME280_humidity;BME280_pressure;Samples;Min_cycle;Max_cycle;Signal;HPM_P1;HPM_P2
2021/10/31 00:00:07;;;;;;;;;;;;;;;;;;2059887;28;1332;-90
2021/10/31 00:01:15;;;;;;;;;;;;;;;;;;2060094;28;698;-90
2021/10/31 00:02:17;;;;;;;;;;;;;;;;;;2052219;28;1915;-90
2021/10/31 00:03:19;;;;;;;;;;;;;;;;;;2051301;28;1364;-90
2021/10/31 00:04:19;;;;;;;;;;;;;;;;;;2059827;28;1448;-89
2021/10/31 00:05:21;;;;;;;;;;;;;;;;;;2059547;28;1237;-90
2021/10/31 00:06:22;;;;;;;;;;;;;;;;;;2060209;28;1384;-90
2021/10/31 00:07:24;;;;;;;;;;;;;;;;;;2060161;28;1337;-90
2021/10/31 00:08:25;;;;;;;;;;;;;;;;;;2060026;28;1311;-90
2021/10/31 00:09:27;;;;;;;;;;;;;;;;;;2059491;28;1443;-90
2021/10/31 00:10:28;;;;;;;;;;;;;;;;;;2059687;28;1207;-91
2021/10/31 00:11:30;;;;;;;;;;;;;;;;;;2059479;28;2062;-91
2021/10/31 00:12:30;;;;;;;;;;;;;;;;;;2051920;28;1187;-91
2021/10/31 00:13:35;;;;;;;;;;;;;;;;;;2052047;28;1248;-92
2021/10/31 00:14:35;;;;;;;;;;;;;;;;;;2051900;28;1241;-91
2021/10/31 00:15:37;;;;;;;;;;;;;;;;;;2051967;28;1298;-92
2021/10/31 00:16:39;;;;;;;;;;;;;;;;;;2052146;28;1327;-91
2021/10/31 00:17:42;;;;;;;;;;;;;;;;;;2059502;28;1288;-92
2021/10/31 00:18:43;;;;;;;;;;;;;;;;;;2067629;28;1182;-90
2021/10/31 00:19:45;;;;;;;;;;;;;;;;;;2059787;28;1350;-90
2021/10/31 00:20:46;;;;;;;;;;;;;;;;;;2060068;28;1276;-90
2021/10/31 00:21:49;;;;;;;;;;;;;;;;;;2059478;28;1977;-88
2021/10/31 00:22:50;;;;;;;;;;;;;;;;;;2059585;28;1257;-88
2021/10/31 00:23:51;;;;;;;;;;;;;;;;;;2059971;28;1361;-88
2021/10/31 00:24:53;;;;;;;;;;;;;;;;;;2059866;28;1248;-88
2021/10/31 00:25:55;;;;;;;;;;;;;;;;;;2051467;28;1890;-88
2021/10/31 00:26:55;;;;;;;;;;;;;;;;;;2052143;28;1368;-88
2021/10/31 00:27:57;;;;;;;;;;;;;;;;;;2055669;28;2113;-88
2021/10/31 00:28:58;;;;;;;;;;;;;;;;;;2059332;28;1417;-89
2021/10/31 00:30:00;;;;;;;;;;;;;;;;;;2051767;28;1344;-88
2021/10/31 00:31:00;;;;;;;;;;;;;;;;;;2051980;28;1397;-89
2021/10/31 00:32:02;;;;;;;;;;;;;;;;;;2058545;28;1170;-86
2021/10/31 00:33:04;;;;;;;;;;;;;;;;;;2050890;28;1301;-86
2021/10/31 00:34:06;;;;;;;;;;;;;;;;;;2051515;28;1405;-86
2021/10/31 00:35:07;;;;;;;;;;;;;;;;;;2059410;28;1218;-87
2021/10/31 00:36:10;;;;;;;;;;;;;;;;;;2051801;28;1312;-87
2021/10/31 00:37:11;;;;;;;;;;;;;;;;;;2051755;28;1332;-87
2021/10/31 00:38:12;;;;;;;;;;;;;;;;;;2064693;28;1290;-87
2021/10/31 00:39:13;;;;;;;;;;;;;;;;;;2059206;28;1198;-87
2021/10/31 00:40:15;;;;;;;;;;;;;;;;;;2051795;28;1220;-87
2021/10/31 00:41:16;;;;;;;;;;;;;;;;;;2059493;28;1429;-87
2021/10/31 00:42:18;;;;;;;;;;;;;;;;;;2059386;28;1987;-87
2021/10/31 00:43:20;;;;;;;;;;;;;;;;;;2059786;28;844;-87
2021/10/31 00:44:21;;;;;;;;;;;;;;;;;;2059855;28;1352;-87
2021/10/31 00:45:23;;;;;;;;;;;;;;;;;;2051290;28;1418;-87
2021/10/31 00:46:24;;;;;;;;;;;;;;;;;;2051357;28;1401;-86
2021/10/31 00:47:27;;;;;;;;;;;;;;;;;;2059246;28;1245;-87
2021/10/31 00:48:29;;;;;;;;;;;;;;;;;;2051403;28;1337;-87
2021/10/31 00:49:31;;;;;;;;;;;;;;;;;;2052000;28;1282;-87
2021/10/31 00:50:32;;;;;;;;;;;;;;;;;;2051378;28;1336;-87
2021/10/31 00:51:34;;;;;;;;;;;;;;;;;;2051217;28;1245;-87
2021/10/31 00:52:35;;;;;;;;;;;;;;;;;;2051022;28;1372;-87
2021/10/31 00:53:40;;;;;;;;;;;;;;;;;;2043630;29;1255;-87
2021/10/31 00:54:40;;;;;;;;;;;;;;;;;;2043935;29;1300;-87
2021/10/31 00:55:42;;;;;;;;;;;;;;;;;;2052504;28;1367;-87
2021/10/31 00:56:43;;;;;;;;;;;;;;;;;;2052159;28;1359;-87
2021/10/31 00:57:45;;;;;;;;;;;;;;;;;;2051146;28;1343;-87
2021/10/31 00:58:46;;;;;;;;;;;;;;;;;;2051441;28;1189;-87
2021/10/31 00:59:48;;;;;;;;;;;;;;;;;;2059126;28;1206;-87
2021/10/31 01:00:49;;;;;;;;;;;;;;;;;;2059504;28;1260;-87
2021/10/31 01:01:52;;;;;;;;;;;;;;;;;;2051113;28;1910;-87
2021/10/31 01:02:53;;;;;;;;;;;;;;;;;;2051890;28;1216;-87
2021/10/31 01:03:57;;;;;;;;;;;;;;;;;;2051330;28;1363;-87
2021/10/31 01:05:01;;;;;;;;;;;;;;;;;;2059135;28;1282;-88
2021/10/31 01:06:22;;;;;;;;;;;;;;;;;;2059576;28;1497;-88
2021/10/31 01:07:45;;;;;;;;;;;;;;;;;;2051583;29;1254;-88
2021/10/31 01:08:50;;;;;;;;;;;;;;;;;;2032629;29;1316;-88
2021/10/31 01:09:58;;;;;;;;;;;;;;;;;;2036470;29;1337;-88
2021/10/31 01:11:19;;;;;;;;;;;;;;;;;;2044240;29;1819;-89
2021/10/31 01:12:34;;;;;;;;;;;;;;;;;;2053803;28;1298;-87
2021/10/31 01:13:46;;;;;;;;;;;;;;;;;;2057466;28;1291;-86
2021/10/31 01:14:55;;;;;;;;;;;;;;;;;;2059631;28;1308;-86
2021/10/31 01:16:02;;;;;;;;;;;;;;;;;;2059093;28;2019;-87
2021/10/31 01:17:09;;;;;;;;;;;;;;;;;;2051177;29;1472;-86
2021/10/31 01:18:31;;;;;;;;;;;;;;;;;;2052058;28;1295;-87
2021/10/31 01:19:44;;;;;;;;;;;;;;;;;;2043080;28;1265;-86
2021/10/31 01:20:50;;;;;;;;;;;;;;;;;;2051344;29;1331;-87
2021/10/31 01:21:56;;;;;;;;;;;;;;;;;;2052039;28;1593;-86
2021/10/31 01:23:07;;;;;;;;;;;;;;;;;;2058353;28;1195;-89
2021/10/31 01:24:24;;;;;;;;;;;;;;;;;;2052413;28;1533;-86
2021/10/31 01:25:32;;;;;;;;;;;;;;;;;;2051539;29;1403;-87
2021/10/31 01:26:43;;;;;;;;;;;;;;;;;;2052170;28;1272;-89
2021/10/31 01:27:52;;;;;;;;;;;;;;;;;;2043450;29;1182;-88
2021/10/31 01:29:02;;;;;;;;;;;;;;;;;;2045411;28;1325;-88
2021/10/31 01:30:10;;;;;;;;;;;;;;;;;;2051324;29;1245;-88
2021/10/31 01:31:18;;;;;;;;;;;;;;;;;;2051755;28;1396;-89
2021/10/31 01:32:25;;;;;;;;;;;;;;;;;;2051148;29;1250;-88
2021/10/31 01:33:33;;;;;;;;;;;;;;;;;;2043132;29;1221;-88
2021/10/31 01:34:42;;;;;;;;;;;;;;;;;;2037772;29;1316;-88
2021/10/31 01:35:53;;;;;;;;;;;;;;;;;;2044995;28;1286;-87
2021/10/31 01:36:59;;;;;;;;;;;;;;;;;;2059408;28;1353;-87
2021/10/31 01:38:06;;;;;;;;;;;;;;;;;;2052252;28;1326;-87
2021/10/31 01:39:12;;;;;;;;;;;;;;;;;;2052269;28;1323;-86
2021/10/31 01:40:15;;;;;;;;;;;;;;;;;;2059738;28;1180;-87
2021/10/31 01:41:20;;;;;;;;;;;;;;;;;;2051354;28;2064;-86
2021/10/31 01:42:22;;;;;;;;;;;;;;;;;;2051449;28;1910;-87
2021/10/31 01:43:30;;;;;;;;;;;;;;;;;;2051615;28;1357;-87
2021/10/31 01:44:36;;;;;;;;;;;;;;;;;;2058658;28;1335;-87
2021/10/31 01:45:41;;;;;;;;;;;;;;;;;;2058898;28;1356;-87
2021/10/31 01:46:47;;;;;;;;;;;;;;;;;;2059514;28;1237;-87
2021/10/31 01:47:52;;;;;;;;;;;;;;;;;;2059166;28;1410;-87
2021/10/31 01:48:58;;;;;;;;;;;;;;;;;;2050348;29;1274;-87
2021/10/31 01:50:03;;;;;;;;;;;;;;;;;;2051572;28;1329;-87
2021/10/31 01:51:13;;;;;;;;;;;;;;;;;;2059359;28;1209;-87
2021/10/31 01:52:16;;;;;;;;;;;;;;;;;;2051224;29;1252;-87
2021/10/31 01:53:20;;;;;;;;;;;;;;;;;;2050922;28;1284;-87
2021/10/31 01:54:24;;;;;;;;;;;;;;;;;;2058580;28;1134;-87
2021/10/31 01:55:30;;;;;;;;;;;;;;;;;;2059055;28;1241;-88
2021/10/31 01:56:34;;;;;;;;;;;;;;;;;;2058800;28;1359;-88
2021/10/31 01:57:39;;;;;;;;;;;;;;;;;;2051537;28;1366;-88
2021/10/31 01:58:45;;;;;;;;;;;;;;;;;;2051797;28;1386;-88
2021/10/31 01:59:48;;;;;;;;;;;;;;;;;;2051333;28;1237;-88
2021/10/31 02:00:51;;;;;;;;;;;;;;;;;;2051404;28;1910;-88
2021/10/31 02:01:52;;;;;;;;;;;;;;;;;;2058649;28;1455;-87
2021/10/31 02:02:54;;;;;;;;;;;;;;;;;;2059144;28;1968;-87
2021/10/31 02:03:55;;;;;;;;;;;;;;;;;;2042952;29;1439;-87
2021/10/31 02:04:59;;;;;;;;;;;;;;;;;;2051340;28;1253;-89
2021/10/31 02:06:00;;;;;;;;;;;;;;;;;;2051122;28;1272;-88
2021/10/31 02:07:06;;;;;;;;;;;;;;;;;;2043348;28;1217;-89
2021/10/31 02:08:07;;;;;;;;;;;;;;;;;;2058547;28;1435;-88
2021/10/31 02:09:10;;;;;;;;;;;;;;;;;;2050760;28;1233;-88
2021/10/31 02:10:12;;;;;;;;;;;;;;;;;;2043451;29;1434;-88
2021/10/31 02:11:17;;;;;;;;;;;;;;;;;;2043098;29;1356;-87
2021/10/31 02:12:20;;;;;;;;;;;;;;;;;;2036385;29;1308;-87
2021/10/31 02:13:24;;;;;;;;;;;;;;;;;;2043744;28;1344;-87
2021/10/31 02:14:25;;;;;;;;;;;;;;;;;;2058818;28;1367;-87
2021/10/31 02:15:27;;;;;;;;;;;;;;;;;;2058744;28;1345;-86
2021/10/31 02:16:29;;;;;;;;;;;;;;;;;;2059201;28;1242;-86
2021/10/31 02:17:32;;;;;;;;;;;;;;;;;;2050611;28;2018;-87
2021/10/31 02:18:33;;;;;;;;;;;;;;;;;;2042976;28;1577;-88
2021/10/31 02:19:38;;;;;;;;;;;;;;;;;;2058668;28;1312;-87
2021/10/31 02:20:41;;;;;;;;;;;;;;;;;;2058773;28;1206;-87
2021/10/31 02:21:43;;;;;;;;;;;;;;;;;;2059130;28;1408;-87
2021/10/31 02:22:50;;;;;;;;;;;;;;;;;;2058703;28;1977;-87
2021/10/31 02:23:52;;;;;;;;;;;;;;;;;;2059542;28;1368;-88
2021/10/31 02:24:54;;;;;;;;;;;;;;;;;;2059356;28;1616;-87
2021/10/31 02:25:57;;;;;;;;;;;;;;;;;;2050582;28;1504;-87
2021/10/31 02:26:58;;;;;;;;;;;;;;;;;;2051156;28;1289;-88
2021/10/31 02:28:00;;;;;;;;;;;;;;;;;;2050834;28;1387;-87
2021/10/31 02:29:01;;;;;;;;;;;;;;;;;;2051050;28;1419;-87
2021/10/31 02:30:05;;;;;;;;;;;;;;;;;;2051144;28;1387;-87
2021/10/31 02:31:06;;;;;;;;;;;;;;;;;;2050670;28;1238;-87
2021/10/31 02:32:08;;;;;;;;;;;;;;;;;;2059056;28;1372;-87
2021/10/31 02:33:10;;;;;;;;;;;;;;;;;;2058249;28;1222;-87
2021/10/31 02:34:11;;;;;;;;;;;;;;;;;;2050589;28;1304;-87
2021/10/31 02:35:14;;;;;;;;;;;;;;;;;;2050882;28;1246;-87
2021/10/31 02:36:14;;;;;;;;;;;;;;;;;;2053474;28;1845;-87
2021/10/31 02:37:16;;;;;;;;;;;;;;;;;;2058873;28;1420;-86
2021/10/31 02:38:21;;;;;;;;;;;;;;;;;;2058636;28;817;-87
2021/10/31 02:39:22;;;;;;;;;;;;;;;;;;2058594;28;1371;-87
2021/10/31 02:40:25;;;;;;;;;;;;;;;;;;2050718;28;1285;-87
2021/10/31 02:41:25;;;;;;;;;;;;;;;;;;2042955;29;1204;-87
2021/10/31 02:42:27;;;;;;;;;;;;;;;;;;2050604;28;1910;-87
2021/10/31 02:43:29;;;;;;;;;;;;;;;;;;2058078;28;1426;-87
2021/10/31 02:44:31;;;;;;;;;;;;;;;;;;2059358;28;1205;-87
2021/10/31 02:45:32;;;;;;;;;;;;;;;;;;2058387;28;1287;-87
2021/10/31 02:46:35;;;;;;;;;;;;;;;;;;2050857;28;1245;-87
2021/10/31 02:47:38;;;;;;;;;;;;;;;;;;2051366;28;1241;-87
2021/10/31 02:48:41;;;;;;;;;;;;;;;;;;2051262;28;1244;-87
2021/10/31 02:49:42;;;;;;;;;;;;;;;;;;2042773;29;1214;-87
2021/10/31 02:50:45;;;;;;;;;;;;;;;;;;2050166;28;1701;-87
2021/10/31 02:51:48;;;;;;;;;;;;;;;;;;2058396;28;1559;-87
2021/10/31 02:52:55;;;;;;;;;;;;;;;;;;2066904;28;1330;-86
2021/10/31 02:54:01;;;;;;;;;;;;;;;;;;2058891;28;1328;-87
2021/10/31 02:55:08;;;;;;;;;;;;;;;;;;2059143;28;1296;-87
2021/10/31 02:56:17;;;;;;;;;;;;;;;;;;2058389;28;1328;-88
2021/10/31 02:57:20;;;;;;;;;;;;;;;;;;2052154;28;1221;-87
2021/10/31 02:58:25;;;;;;;;;;;;;;;;;;2050624;28;1320;-88
2021/10/31 02:59:29;;;;;;;;;;;;;;;;;;2050875;28;1198;-87
2021/10/31 03:00:33;;;;;;;;;;;;;;;;;;2058655;28;1276;-88
2021/10/31 03:01:35;;;;;;;;;;;;;;;;;;2050949;28;1528;-88
2021/10/31 03:02:37;;;;;;;;;;;;;;;;;;2050464;28;1998;-88
2021/10/31 03:03:38;;;;;;;;;;;;;;;;;;2050073;28;1435;-87
2021/10/31 03:04:40;;;;;;;;;;;;;;;;;;2058316;28;1141;-87
2021/10/31 03:05:45;;;;;;;;;;;;;;;;;;2065580;28;2030;-88
2021/10/31 03:06:47;;;;;;;;;;;;;;;;;;2050889;29;1198;-88
2021/10/31 03:07:48;;;;;;;;;;;;;;;;;;2053082;28;1265;-88
2021/10/31 03:08:50;;;;;;;;;;;;;;;;;;2058639;28;1297;-88
2021/10/31 03:09:53;;;;;;;;;;;;;;;;;;2058371;28;1198;-88
2021/10/31 03:10:55;;;;;;;;;;;;;;;;;;2050806;28;1221;-88
2021/10/31 03:11:59;;;;;;;;;;;;;;;;;;2042805;28;1235;-87
2021/10/31 03:13:01;;;;;;;;;;;;;;;;;;2058570;28;1993;-88
2021/10/31 03:14:02;;;;;;;;;;;;;;;;;;2058563;28;1274;-88
2021/10/31 03:15:04;;;;;;;;;;;;;;;;;;2058600;28;1352;-88
2021/10/31 03:16:06;;;;;;;;;;;;;;;;;;2055179;28;1291;-87
2021/10/31 03:17:08;;;;;;;;;;;;;;;;;;2058732;28;1264;-88
2021/10/31 03:18:09;;;;;;;;;;;;;;;;;;2058152;28;1320;-88
2021/10/31 03:19:11;;;;;;;;;;;;;;;;;;2050581;28;1374;-88
2021/10/31 03:20:12;;;;;;;;;;;;;;;;;;2050858;28;1347;-88
2021/10/31 03:21:14;;;;;;;;;;;;;;;;;;2063308;28;1213;-88
2021/10/31 03:22:15;;;;;;;;;;;;;;;;;;2050825;28;1205;-88
2021/10/31 03:23:17;;;;;;;;;;;;;;;;;;2050454;28;1980;-88
2021/10/31 03:24:18;;;;;;;;;;;;;;;;;;2058605;28;1313;-88
2021/10/31 03:25:21;;;;;;;;;;;;;;;;;;2050381;28;1259;-88
2021/10/31 03:26:23;;;;;;;;;;;;;;;;;;2058383;28;1952;-88
2021/10/31 03:27:25;;;;;;;;;;;;;;;;;;2050806;28;1315;-88
2021/10/31 03:28:27;;;;;;;;;;;;;;;;;;2050704;28;1249;-88
2021/10/31 03:29:28;;;;;;;;;;;;;;;;;;2058539;28;1336;-88
2021/10/31 03:30:30;;;;;;;;;;;;;;;;;;2058711;28;1353;-86
2021/10/31 03:31:30;;;;;;;;;;;;;;;;;;2058255;28;1183;-86
2021/10/31 03:32:32;;;;;;;;;;;;;;;;;;2058264;28;1874;-86
2021/10/31 03:33:33;;;;;;;;;;;;;;;;;;2042895;29;1244;-86
2021/10/31 03:34:35;;;;;;;;;;;;;;;;;;2042655;29;1190;-86
2021/10/31 03:35:36;;;;;;;;;;;;;;;;;;2050715;28;1262;-85
2021/10/31 03:36:38;;;;;;;;;;;;;;;;;;2042918;29;1313;-86
2021/10/31 03:37:39;;;;;;;;;;;;;;;;;;2042735;29;1204;-86
2021/10/31 03:38:41;;;;;;;;;;;;;;;;;;2042338;29;1199;-86
2021/10/31 03:39:41;;;;;;;;;;;;;;;;;;2042650;29;1350;-90
2021/10/31 03:40:46;;;;;;;;;;;;;;;;;;2043573;29;1208;-90
2021/10/31 03:41:46;;;;;;;;;;;;;;;;;;2058326;28;1407;-89
2021/10/31 03:42:50;;;;;;;;;;;;;;;;;;2058017;28;1974;-90
2021/10/31 03:43:51;;;;;;;;;;;;;;;;;;2050502;28;1311;-88
2021/10/31 03:44:53;;;;;;;;;;;;;;;;;;2050259;28;1210;-90
2021/10/31 03:45:54;;;;;;;;;;;;;;;;;;2042574;29;2065;-90
2021/10/31 03:46:56;;;;;;;;;;;;;;;;;;2042453;29;1336;-89
2021/10/31 03:47:59;;;;;;;;;;;;;;;;;;2058776;28;1246;-89
2021/10/31 03:48:59;;;;;;;;;;;;;;;;;;2058081;28;1324;-90
2021/10/31 03:50:01;;;;;;;;;;;;;;;;;;2058635;28;1205;-89
2021/10/31 03:51:02;;;;;;;;;;;;;;;;;;2057965;28;1410;-86
2021/10/31 03:52:05;;;;;;;;;;;;;;;;;;2058486;28;1347;-86
2021/10/31 03:53:06;;;;;;;;;;;;;;;;;;2058543;28;1299;-87
2021/10/31 03:54:08;;;;;;;;;;;;;;;;;;2050422;28;1373;-89
2021/10/31 03:55:09;;;;;;;;;;;;;;;;;;2056133;28;1664;-90
2021/10/31 03:56:13;;;;;;;;;;;;;;;;;;2058368;28;1878;-89
2021/10/31 03:57:13;;;;;;;;;;;;;;;;;;2058373;28;1433;-89
2021/10/31 03:58:15;;;;;;;;;;;;;;;;;;2050416;28;1333;-89
2021/10/31 03:59:17;;;;;;;;;;;;;;;;;;2034719;29;1389;-88
2021/10/31 04:00:19;;;;;;;;;;;;;;;;;;2035607;29;1259;-88
2021/10/31 04:01:20;;;;;;;;;;;;;;;;;;2042365;29;1319;-87
2021/10/31 04:02:22;;;;;;;;;;;;;;;;;;2050452;28;1350;-87
2021/10/31 04:03:23;;;;;;;;;;;;;;;;;;2050115;28;1915;-87
2021/10/31 04:04:25;;;;;;;;;;;;;;;;;;2050265;28;1191;-87
2021/10/31 04:05:27;;;;;;;;;;;;;;;;;;2058577;28;1313;-87
2021/10/31 04:06:28;;;;;;;;;;;;;;;;;;2050256;28;1352;-87
2021/10/31 04:07:29;;;;;;;;;;;;;;;;;;2050836;28;1189;-87
2021/10/31 04:08:30;;;;;;;;;;;;;;;;;;2043744;29;1343;-87
2021/10/31 04:09:32;;;;;;;;;;;;;;;;;;2044080;29;1302;-87
2021/10/31 04:10:33;;;;;;;;;;;;;;;;;;2043881;29;1226;-88
2021/10/31 04:11:36;;;;;;;;;;;;;;;;;;2051675;28;1439;-87
2021/10/31 04:12:37;;;;;;;;;;;;;;;;;;2052091;28;917;-87
2021/10/31 04:13:39;;;;;;;;;;;;;;;;;;2051817;28;1339;-87
2021/10/31 04:14:40;;;;;;;;;;;;;;;;;;2044114;29;1301;-88
2021/10/31 04:15:42;;;;;;;;;;;;;;;;;;2043971;29;1230;-87
2021/10/31 04:16:43;;;;;;;;;;;;;;;;;;2055397;28;1604;-87
2021/10/31 04:17:45;;;;;;;;;;;;;;;;;;2051483;28;1218;-87
2021/10/31 04:18:46;;;;;;;;;;;;;;;;;;2060031;28;1299;-87
2021/10/31 04:19:48;;;;;;;;;;;;;;;;;;2059464;28;1244;-87
2021/10/31 04:20:49;;;;;;;;;;;;;;;;;;2060190;28;1196;-87
2021/10/31 04:21:51;;;;;;;;;;;;;;;;;;2059795;28;1201;-87
2021/10/31 04:22:52;;;;;;;;;;;;;;;;;;2051622;28;1332;-87
2021/10/31 04:23:54;;;;;;;;;;;;;;;;;;2051079;28;1899;-87
2021/10/31 04:24:54;;;;;;;;;;;;;;;;;;2059645;28;1252;-87
2021/10/31 04:25:56;;;;;;;;;;;;;;;;;;2059726;28;1378;-87
2021/10/31 04:27:00;;;;;;;;;;;;;;;;;;2051496;28;1186;-87
2021/10/31 04:28:02;;;;;;;;;;;;;;;;;;2052360;28;1598;-87
2021/10/31 04:29:03;;;;;;;;;;;;;;;;;;2051576;28;1333;-87
2021/10/31 04:30:05;;;;;;;;;;;;;;;;;;2051640;28;1214;-87
2021/10/31 04:31:06;;;;;;;;;;;;;;;;;;2059433;28;1210;-87
2021/10/31 04:32:08;;;;;;;;;;;;;;;;;;2059549;28;1188;-87
2021/10/31 04:33:09;;;;;;;;;;;;;;;;;;2051373;28;1252;-89
2021/10/31 04:34:11;;;;;;;;;;;;;;;;;;2051648;28;1284;-89
2021/10/31 04:35:12;;;;;;;;;;;;;;;;;;2059249;28;1209;-89
2021/10/31 04:36:14;;;;;;;;;;;;;;;;;;2059324;28;2091;-88
2021/10/31 04:37:15;;;;;;;;;;;;;;;;;;2052060;28;1363;-89
2021/10/31 04:38:19;;;;;;;;;;;;;;;;;;2045268;28;2098;-89
2021/10/31 04:39:20;;;;;;;;;;;;;;;;;;2051747;28;1296;-89
2021/10/31 04:40:23;;;;;;;;;;;;;;;;;;2051872;28;1498;-88
2021/10/31 04:41:26;;;;;;;;;;;;;;;;;;2058265;28;1257;-89
2021/10/31 04:42:32;;;;;;;;;;;;;;;;;;2059739;28;1269;-89
2021/10/31 04:43:32;;;;;;;;;;;;;;;;;;2058811;28;1985;-87
2021/10/31 04:44:35;;;;;;;;;;;;;;;;;;2051527;28;1304;-87
2021/10/31 04:45:35;;;;;;;;;;;;;;;;;;2043814;29;1321;-87
2021/10/31 04:46:37;;;;;;;;;;;;;;;;;;2043593;29;1240;-87
2021/10/31 04:47:38;;;;;;;;;;;;;;;;;;2043594;29;1356;-87
2021/10/31 04:48:40;;;;;;;;;;;;;;;;;;2044025;29;1328;-87
2021/10/31 04:49:40;;;;;;;;;;;;;;;;;;2043116;29;1205;-87
2021/10/31 04:50:43;;;;;;;;;;;;;;;;;;2044332;29;1272;-88
2021/10/31 04:51:43;;;;;;;;;;;;;;;;;;2051236;28;1628;-88
2021/10/31 04:52:45;;;;;;;;;;;;;;;;;;2053400;28;1372;-88
2021/10/31 04:53:47;;;;;;;;;;;;;;;;;;2051760;28;1206;-88
2021/10/31 04:54:48;;;;;;;;;;;;;;;;;;2043825;29;1377;-89
2021/10/31 04:55:50;;;;;;;;;;;;;;;;;;2051372;28;1512;-86
2021/10/31 04:56:51;;;;;;;;;;;;;;;;;;2051413;28;1356;-86
2021/10/31 04:57:55;;;;;;;;;;;;;;;;;;2043335;29;1195;-86
2021/10/31 04:58:55;;;;;;;;;;;;;;;;;;2044099;29;1220;-86
2021/10/31 04:59:57;;;;;;;;;;;;;;;;;;2043313;29;1186;-86
2021/10/31 05:00:58;;;;;;;;;;;;;;;;;;2046842;28;1217;-86
2021/10/31 05:02:00;;;;;;;;;;;;;;;;;;2051178;28;1333;-85
2021/10/31 05:03:01;;;;;;;;;;;;;;;;;;2058866;28;2029;-87
2021/10/31 05:04:03;;;;;;;;;;;;;;;;;;2059924;28;1989;-86
2021/10/31 05:05:04;;;;;;;;;;;;;;;;;;2059507;28;1292;-86
2021/10/31 05:06:06;;;;;;;;;;;;;;;;;;2059036;28;2126;-86
2021/10/31 05:07:07;;;;;;;;;;;;;;;;;;2059207;28;1174;-86
2021/10/31 05:08:10;;;;;;;;;;;;;;;;;;2051501;28;1288;-86
2021/10/31 05:09:11;;;;;;;;;;;;;;;;;;2059147;28;1218;-86
2021/10/31 05:10:13;;;;;;;;;;;;;;;;;;2059388;28;1191;-85
2021/10/31 05:11:14;;;;;;;;;;;;;;;;;;2043330;29;1225;-83
2021/10/31 05:12:16;;;;;;;;;;;;;;;;;;2043370;29;1199;-83
2021/10/31 05:13:18;;;;;;;;;;;;;;;;;;2058933;28;1416;-83
2021/10/31 05:14:20;;;;;;;;;;;;;;;;;;2059687;28;1335;-85
2021/10/31 05:15:21;;;;;;;;;;;;;;;;;;2051490;28;1261;-85
2021/10/31 05:16:22;;;;;;;;;;;;;;;;;;2051545;28;1281;-85
2021/10/31 05:17:23;;;;;;;;;;;;;;;;;;2051074;28;1190;-85
2021/10/31 05:18:25;;;;;;;;;;;;;;;;;;2051008;28;1376;-84
2021/10/31 05:19:26;;;;;;;;;;;;;;;;;;2051588;28;1322;-85
2021/10/31 05:20:28;;;;;;;;;;;;;;;;;;2058987;28;1240;-85
2021/10/31 05:21:28;;;;;;;;;;;;;;;;;;2052074;28;2163;-85
2021/10/31 05:22:30;;;;;;;;;;;;;;;;;;2050938;28;1337;-86
2021/10/31 05:23:31;;;;;;;;;;;;;;;;;;2051001;28;1922;-85
2021/10/31 05:24:33;;;;;;;;;;;;;;;;;;2051417;28;1424;-83
2021/10/31 05:25:35;;;;;;;;;;;;;;;;;;2051072;28;1309;-86
2021/10/31 05:26:37;;;;;;;;;;;;;;;;;;2051158;28;1312;-83
2021/10/31 05:27:37;;;;;;;;;;;;;;;;;;2050715;28;1288;-83
2021/10/31 05:28:41;;;;;;;;;;;;;;;;;;2051322;28;1217;-84
2021/10/31 05:29:41;;;;;;;;;;;;;;;;;;2051055;28;1328;-84
2021/10/31 05:30:43;;;;;;;;;;;;;;;;;;2044209;29;1866;-85
2021/10/31 05:31:44;;;;;;;;;;;;;;;;;;2043423;29;1403;-84
2021/10/31 05:32:47;;;;;;;;;;;;;;;;;;2053539;28;1194;-84
2021/10/31 05:33:48;;;;;;;;;;;;;;;;;;2051506;28;1189;-85
2021/10/31 05:34:50;;;;;;;;;;;;;;;;;;2050871;28;1210;-84
2021/10/31 05:35:52;;;;;;;;;;;;;;;;;;2051085;28;1208;-84
2021/10/31 05:36:54;;;;;;;;;;;;;;;;;;2051595;28;1295;-85
2021/10/31 05:37:58;;;;;;;;;;;;;;;;;;2059080;28;841;-84
2021/10/31 05:38:58;;;;;;;;;;;;;;;;;;2059885;28;882;-85
2021/10/31 05:40:00;;;;;;;;;;;;;;;;;;2059415;28;1313;-85
2021/10/31 05:41:03;;;;;;;;;;;;;;;;;;2059131;28;1170;-85
2021/10/31 05:42:05;;;;;;;;;;;;;;;;;;2059674;28;1292;-84
2021/10/31 05:43:06;;;;;;;;;;;;;;;;;;2051127;28;1224;-85
2021/10/31 05:44:09;;;;;;;;;;;;;;;;;;2059385;28;1985;-85
2021/10/31 05:45:10;;;;;;;;;;;;;;;;;;2059439;28;907;-84
2021/10/31 05:46:13;;;;;;;;;;;;;;;;;;2059572;28;1319;-85
2021/10/31 05:47:13;;;;;;;;;;;;;;;;;;2058726;28;1328;-84
2021/10/31 05:48:16;;;;;;;;;;;;;;;;;;2059073;28;1234;-84
2021/10/31 05:49:17;;;;;;;;;;;;;;;;;;2058716;28;1356;-84
2021/10/31 05:50:19;;;;;;;;;;;;;;;;;;2050975;28;1310;-83
2021/10/31 05:51:20;;;;;;;;;;;;;;;;;;2059181;28;2043;-84
2021/10/31 05:52:23;;;;;;;;;;;;;;;;;;2051213;28;1254;-84
2021/10/31 05:53:25;;;;;;;;;;;;;;;;;;2035384;29;2072;-84
2021/10/31 05:54:26;;;;;;;;;;;;;;;;;;2043363;29;1212;-84
2021/10/31 05:55:28;;;;;;;;;;;;;;;;;;2050898;28;1329;-84
2021/10/31 05:56:29;;;;;;;;;;;;;;;;;;2058336;28;1228;-84
2021/10/31 05:57:31;;;;;;;;;;;;;;;;;;2043193;29;1407;-85
2021/10/31 05:58:32;;;;;;;;;;;;;;;;;;2043678;29;1269;-84
2021/10/31 05:59:35;;;;;;;;;;;;;;;;;;2051033;28;1340;-84
2021/10/31 06:00:36;;;;;;;;;;;;;;;;;;2043181;29;1475;-84
2021/10/31 06:01:38;;;;;;;;;;;;;;;;;;2043008;29;1229;-84
2021/10/31 06:02:38;;;;;;;;;;;;;;;;;;2050424;28;1299;-84
2021/10/31 06:03:40;;;;;;;;;;;;;;;;;;2035266;29;1919;-84
2021/10/31 06:04:44;;;;;;;;;;;;;;;;;;2043859;28;1671;-85
2021/10/31 06:05:47;;;;;;;;;;;;;;;;;;2058843;28;1209;-84
2021/10/31 06:06:48;;;;;;;;;;;;;;;;;;2058923;28;1239;-84
2021/10/31 06:07:50;;;;;;;;;;;;;;;;;;2050899;28;1213;-84
2021/10/31 06:08:51;;;;;;;;;;;;;;;;;;2051310;28;1376;-84
2021/10/31 06:09:53;;;;;;;;;;;;;;;;;;2051155;28;1291;-84
2021/10/31 06:10:53;;;;;;;;;;;;;;;;;;2050744;28;1297;-84
2021/10/31 06:11:55;;;;;;;;;;;;;;;;;;2050649;28;1317;-83
2021/10/31 06:12:56;;;;;;;;;;;;;;;;;;2054734;28;1305;-84
2021/10/31 06:13:58;;;;;;;;;;;;;;;;;;2058835;28;1300;-84
2021/10/31 06:15:01;;;;;;;;;;;;;;;;;;2058785;28;1422;-85
2021/10/31 06:16:02;;;;;;;;;;;;;;;;;;2050486;28;1241;-84
2021/10/31 06:17:04;;;;;;;;;;;;;;;;;;2050777;28;1298;-84
2021/10/31 06:18:06;;;;;;;;;;;;;;;;;;2059045;28;1312;-84
2021/10/31 06:19:06;;;;;;;;;;;;;;;;;;2058964;28;1197;-84
2021/10/31 06:20:09;;;;;;;;;;;;;;;;;;2050716;28;1395;-84
2021/10/31 06:21:11;;;;;;;;;;;;;;;;;;2058542;28;2059;-83
2021/10/31 06:22:12;;;;;;;;;;;;;;;;;;2058682;28;1193;-83
2021/10/31 06:23:15;;;;;;;;;;;;;;;;;;2058406;28;1214;-83
2021/10/31 06:24:15;;;;;;;;;;;;;;;;;;2050444;28;1973;-83
2021/10/31 06:25:17;;;;;;;;;;;;;;;;;;2049766;28;1519;-82
2021/10/31 06:26:18;;;;;;;;;;;;;;;;;;2050953;28;1783;-79
2021/10/31 06:27:20;;;;;;;;;;;;;;;;;;2050743;28;1634;-79
2021/10/31 06:28:20;;;;;;;;;;;;;;;;;;2050246;28;1768;-78
2021/10/31 06:29:22;;;;;;;;;;;;;;;;;;2055328;28;1840;-79
2021/10/31 06:30:24;;;;;;;;;;;;;;;;;;2052907;28;1714;-79
2021/10/31 06:31:27;;;;;;;;;;;;;;;;;;2035951;29;1875;-79
2021/10/31 06:32:27;;;;;;;;;;;;;;;;;;2038722;28;1809;-80
2021/10/31 06:33:29;;;;;;;;;;;;;;;;;;2058115;28;1513;-79
2021/10/31 06:34:30;;;;;;;;;;;;;;;;;;2058672;28;1174;-79
2021/10/31 06:35:32;;;;;;;;;;;;;;;;;;2057965;28;1685;-80
2021/10/31 06:36:33;;;;;;;;;;;;;;;;;;2057792;28;1353;-79
2021/10/31 06:37:34;;;;;;;;;;;;;;;;;;2058263;28;1340;-80
2021/10/31 06:38:36;;;;;;;;;;;;;;;;;;2058581;28;1590;-79
2021/10/31 06:39:37;;;;;;;;;;;;;;;;;;2042447;29;1286;-80
2021/10/31 06:40:38;;;;;;;;;;;;;;;;;;2043106;28;1846;-81
2021/10/31 06:41:40;;;;;;;;;;;;;;;;;;2058012;28;1390;-81
2021/10/31 06:42:41;;;;;;;;;;;;;;;;;;2058465;28;1578;-80
2021/10/31 06:43:43;;;;;;;;;;;;;;;;;;2050492;28;1626;-81
2021/10/31 06:44:43;;;;;;;;;;;;;;;;;;2058605;28;1902;-78
2021/10/31 06:45:47;;;;;;;;;;;;;;;;;;2062026;28;1672;-77
2021/10/31 06:46:47;;;;;;;;;;;;;;;;;;2058731;28;1295;-79
2021/10/31 06:47:51;;;;;;;;;;;;;;;;;;2058361;28;1027;-78
2021/10/31 06:48:52;;;;;;;;;;;;;;;;;;2050373;28;1515;-78
2021/10/31 06:49:54;;;;;;;;;;;;;;;;;;2050373;28;1545;-78
2021/10/31 06:50:56;;;;;;;;;;;;;;;;;;2056630;28;1600;-78
2021/10/31 06:51:59;;;;;;;;;;;;;;;;;;2050125;28;1565;-78
2021/10/31 06:52:59;;;;;;;;;;;;;;;;;;2050752;28;1582;-78
2021/10/31 06:54:02;;;;;;;;;;;;;;;;;;2050244;29;1369;-78
2021/10/31 06:55:05;;;;;;;;;;;;;;;;;;2050248;28;1552;-79
2021/10/31 06:56:06;;;;;;;;;;;;;;;;;;2050449;28;1273;-78
2021/10/31 06:57:08;;;;;;;;;;;;;;;;;;2058084;28;1558;-78
2021/10/31 06:58:10;;;;;;;;;;;;;;;;;;2058118;28;1218;-79
2021/10/31 06:59:11;;;;;;;;;;;;;;;;;;2058212;28;1558;-78
2021/10/31 07:00:13;;;;;;;;;;;;;;;;;;2050414;28;1221;-78
2021/10/31 07:01:15;;;;;;;;;;;;;;;;;;2057089;28;1962;-79
2021/10/31 07:02:17;;;;;;;;;;;;;;;;;;2042445;29;1625;-79
2021/10/31 07:03:18;;;;;;;;;;;;;;;;;;2048846;28;1628;-79
2021/10/31 07:04:20;;;;;;;;;;;;;;;;;;2050408;28;1918;-79
2021/10/31 07:05:21;;;;;;;;;;;;;;;;;;2057833;28;1387;-80
2021/10/31 07:06:22;;;;;;;;;;;;;;;;;;2058141;28;1889;-80
2021/10/31 07:07:24;;;;;;;;;;;;;;;;;;2058051;28;1192;-80
2021/10/31 07:08:25;;;;;;;;;;;;;;;;;;2058305;28;1293;-79
2021/10/31 07:09:27;;;;;;;;;;;;;;;;;;2050548;28;1264;-80
2021/10/31 07:10:28;;;;;;;;;;;;;;;;;;2050646;28;1636;-80
2021/10/31 07:11:30;;;;;;;;;;;;;;;;;;2047448;28;1636;-80
2021/10/31 07:12:32;;;;;;;;;;;;;;;;;;2042477;28;1642;-80
2021/10/31 07:13:33;;;;;;;;;;;;;;;;;;2058421;28;929;-80
2021/10/31 07:14:35;;;;;;;;;;;;;;;;;;2050298;28;1535;-81